createdAt,value
2019-01-23T00:02:05.703Z,51.90
2019-01-23T00:04:35.486Z,52.57
2019-01-23T00:07:05.337Z,47.93
2019-01-23T00:09:35.191Z,46.77
2019-01-23T00:12:05.734Z,46.47
2019-01-23T00:14:35.505Z,52.93
2019-01-23T00:17:05.368Z,49.97
2019-01-23T00:19:35.148Z,50.47
2019-01-23T00:22:06.151Z,50.00
2019-01-23T00:24:35.849Z,48.47
2019-01-23T00:27:05.882Z,51.30
2019-01-23T00:29:35.574Z,50.40
2019-01-23T00:32:05.628Z,53.97
2019-01-23T00:34:35.588Z,53.73
2019-01-23T00:37:05.646Z,63.07
2019-01-23T00:39:35.339Z,60.03
2019-01-23T00:42:05.562Z,54.57
2019-01-23T00:44:35.528Z,51.77
2019-01-23T00:47:05.603Z,51.10
2019-01-23T00:49:35.303Z,53.97
2019-01-23T00:52:05.226Z,51.63
2019-01-23T00:54:35.214Z,53.40
2019-01-23T00:57:05.110Z,51.33
2019-01-23T00:59:34.929Z,50.77
2019-01-23T01:02:06.018Z,50.20
2019-01-23T01:04:35.865Z,51.53
2019-01-23T01:07:05.839Z,52.43
2019-01-23T01:09:35.718Z,54.90
2019-01-23T01:12:05.689Z,53.97
2019-01-23T01:14:35.426Z,51.00
2019-01-23T01:17:05.478Z,50.17
2019-01-23T01:19:35.255Z,53.77
2019-01-23T01:22:05.221Z,57.33
2019-01-23T01:24:35.218Z,48.30
2019-01-23T01:27:05.574Z,54.13
2019-01-23T01:29:35.518Z,57.00
2019-01-23T01:32:05.590Z,54.73
2019-01-23T01:34:35.301Z,55.57
2019-01-23T01:37:05.150Z,56.67
2019-01-23T01:39:35.045Z,54.97
2019-01-23T01:42:04.859Z,55.70
2019-01-23T01:44:34.620Z,53.70
2019-01-23T01:47:04.482Z,64.67
2019-01-23T01:49:34.502Z,56.43
2019-01-23T01:52:04.577Z,53.33
2019-01-23T01:54:34.303Z,50.03
2019-01-23T01:57:04.550Z,56.13
2019-01-23T01:59:34.510Z,58.60
2019-01-23T02:02:04.782Z,57.93
2019-01-23T02:04:35.042Z,50.30
2019-01-23T02:07:05.042Z,51.93
2019-01-23T02:09:35.575Z,50.77
2019-01-23T02:12:05.929Z,54.83
2019-01-23T02:14:35.902Z,52.10
2019-01-23T02:17:05.821Z,53.07
2019-01-23T02:19:35.686Z,52.50
2019-01-23T02:22:05.586Z,55.97
2019-01-23T02:24:35.613Z,54.97
2019-01-23T02:27:05.419Z,53.87
2019-01-23T02:29:35.210Z,53.13
2019-01-23T02:32:05.232Z,54.60
2019-01-23T02:34:35.237Z,51.83
2019-01-23T02:37:05.012Z,59.03
2019-01-23T02:39:35.022Z,60.13
2019-01-23T02:42:04.891Z,51.60
2019-01-23T02:44:34.951Z,51.67
2019-01-23T02:47:05.003Z,51.67
2019-01-23T02:49:34.827Z,50.80
2019-01-23T02:52:05.014Z,54.77
2019-01-23T02:54:35.238Z,48.47
2019-01-23T02:57:05.165Z,55.47
2019-01-23T02:59:35.014Z,54.20
2019-01-23T03:02:05.542Z,53.00
2019-01-23T03:04:35.310Z,63.77
2019-01-23T03:07:05.190Z,54.03
2019-01-23T03:09:35.167Z,54.57
2019-01-23T03:12:05.500Z,59.00
2019-01-23T03:14:35.375Z,54.13
2019-01-23T03:17:05.235Z,54.07
2019-01-23T03:19:35.588Z,55.60
2019-01-23T03:22:05.469Z,51.80
2019-01-23T03:24:35.504Z,52.63
2019-01-23T03:27:05.306Z,53.97
2019-01-23T03:29:35.287Z,51.23
2019-01-23T03:32:05.177Z,49.20
2019-01-23T03:34:35.003Z,52.07
2019-01-23T03:37:04.979Z,52.43
2019-01-23T03:39:34.686Z,52.37
2019-01-23T03:42:04.808Z,51.20
2019-01-23T03:44:34.548Z,51.73
2019-01-23T03:47:04.486Z,56.37
2019-01-23T03:49:34.213Z,49.17
2019-01-23T03:52:04.524Z,49.80
2019-01-23T03:54:34.333Z,52.13
2019-01-23T03:57:04.850Z,51.60
2019-01-23T03:59:34.637Z,52.33
2019-01-23T04:02:04.493Z,52.10
2019-01-23T04:04:34.373Z,50.43
2019-01-23T04:07:04.163Z,50.73
2019-01-23T04:09:34.170Z,47.87
2019-01-23T04:12:04.080Z,48.97
2019-01-23T04:14:33.961Z,55.60
2019-01-23T04:17:03.779Z,51.13
2019-01-23T04:19:33.626Z,51.73
2019-01-23T04:22:03.566Z,49.37
2019-01-23T04:24:33.413Z,52.50
2019-01-23T04:27:04.308Z,53.80
2019-01-23T04:29:39.621Z,51.90
2019-01-23T04:32:05.880Z,58.60
2019-01-23T04:34:35.844Z,52.40
2019-01-23T04:37:05.966Z,51.00
2019-01-23T04:39:35.820Z,49.00
2019-01-23T04:42:05.627Z,48.70
2019-01-23T04:44:35.437Z,62.07
2019-01-23T04:47:05.488Z,57.13
2019-01-23T04:49:35.471Z,50.93
2019-01-23T04:52:13.449Z,53.97
2019-01-23T04:54:43.575Z,52.30
2019-01-23T04:57:13.642Z,84.03
2019-01-23T04:59:46.915Z,61.07
2019-01-23T05:02:15.530Z,53.67
2019-01-23T05:04:45.365Z,54.10
2019-01-23T05:07:15.288Z,57.60
2019-01-23T05:09:45.135Z,61.93
2019-01-23T05:12:14.863Z,55.00
2019-01-23T05:14:44.669Z,62.90
2019-01-23T05:17:14.527Z,65.63
2019-01-23T05:19:44.350Z,57.30
2019-01-23T05:22:14.497Z,58.33
2019-01-23T05:24:44.550Z,60.17
2019-01-23T05:27:14.436Z,64.97
2019-01-23T05:29:44.426Z,66.43
2019-01-23T05:32:14.264Z,62.67
2019-01-23T05:34:44.010Z,57.50
2019-01-23T05:37:13.966Z,63.80
2019-01-23T05:39:44.954Z,59.50
2019-01-23T05:42:14.835Z,61.60
2019-01-23T05:44:44.747Z,62.83
2019-01-23T05:47:14.759Z,71.57
2019-01-23T05:49:44.771Z,89.87
2019-01-23T05:52:14.826Z,101.20
2019-01-23T05:54:44.649Z,88.30
2019-01-23T05:57:15.012Z,80.40
2019-01-23T05:59:45.149Z,79.67
2019-01-23T06:02:14.937Z,80.70
2019-01-23T06:04:44.716Z,90.33
2019-01-23T06:07:14.527Z,94.93
2019-01-23T06:09:44.757Z,85.87
2019-01-23T06:12:15.134Z,93.97
2019-01-23T06:14:45.156Z,97.20
2019-01-23T06:17:15.248Z,117.73
2019-01-23T06:19:45.639Z,111.67
2019-01-23T06:22:15.417Z,108.17
2019-01-23T06:24:45.398Z,112.63
2019-01-23T06:27:15.260Z,106.93
2019-01-23T06:29:45.100Z,124.17
2019-01-23T06:32:15.206Z,98.10
2019-01-23T06:34:45.228Z,94.17
2019-01-23T06:37:15.676Z,80.43
2019-01-23T06:39:45.707Z,88.67
2019-01-23T06:42:15.421Z,78.30
2019-01-23T06:44:45.500Z,80.33
2019-01-23T06:47:15.554Z,83.20
2019-01-23T06:49:45.393Z,77.63
2019-01-23T06:52:15.147Z,80.13
2019-01-23T06:54:44.906Z,75.20
2019-01-23T06:57:14.762Z,84.07
2019-01-23T06:59:44.573Z,82.90
2019-01-23T07:02:14.434Z,86.33
2019-01-23T07:04:44.225Z,88.63
2019-01-23T07:07:14.081Z,85.20
2019-01-23T07:09:43.882Z,93.30
2019-01-23T07:12:13.586Z,95.33
2019-01-23T07:14:43.390Z,139.77
2019-01-23T07:17:13.571Z,129.67
2019-01-23T07:19:43.544Z,87.17
2019-01-23T07:22:13.266Z,84.63
2019-01-23T07:24:43.299Z,86.10
2019-01-23T07:27:13.009Z,82.77
2019-01-23T07:29:42.782Z,78.73
2019-01-23T07:32:12.663Z,91.13
2019-01-23T07:34:42.880Z,86.93
2019-01-23T07:37:12.968Z,79.67
2019-01-23T07:39:43.062Z,71.17
2019-01-23T07:42:13.968Z,84.70
2019-01-23T07:44:43.748Z,77.57
2019-01-23T07:47:13.537Z,75.90
2019-01-23T07:49:43.330Z,73.57
2019-01-23T07:52:13.130Z,92.27
2019-01-23T07:54:42.853Z,82.37
2019-01-23T07:57:12.734Z,87.73
2019-01-23T07:59:42.914Z,83.73
2019-01-23T08:02:12.798Z,93.47
2019-01-23T08:04:42.846Z,95.20
2019-01-23T08:07:12.722Z,92.77
2019-01-23T08:09:42.804Z,96.10
2019-01-23T08:12:12.690Z,97.13
2019-01-23T08:14:42.531Z,88.80
2019-01-23T08:17:12.412Z,82.17
2019-01-23T08:19:42.518Z,82.50
2019-01-23T08:22:12.437Z,83.53
2019-01-23T08:24:42.234Z,118.57
2019-01-23T08:27:12.212Z,125.23
2019-01-23T08:29:42.533Z,107.13
2019-01-23T08:32:12.230Z,78.53
2019-01-23T08:34:42.005Z,66.00
2019-01-23T08:37:12.050Z,63.53
2019-01-23T08:39:41.748Z,67.90
2019-01-23T08:42:12.043Z,61.43
2019-01-23T08:44:42.068Z,60.63
2019-01-23T08:47:12.055Z,81.00
2019-01-23T08:49:41.835Z,79.77
2019-01-23T08:52:11.740Z,75.10
2019-01-23T08:54:41.979Z,69.00
2019-01-23T08:57:11.702Z,69.70
2019-01-23T08:59:41.691Z,63.90
2019-01-23T09:02:11.414Z,69.00
2019-01-23T09:04:41.207Z,66.77
2019-01-23T09:07:11.031Z,71.93
2019-01-23T09:09:41.146Z,67.33
2019-01-23T09:12:11.025Z,61.80
2019-01-23T09:14:40.767Z,65.23
2019-01-23T09:17:10.630Z,66.07
2019-01-23T09:19:40.447Z,74.20
2019-01-23T09:22:10.234Z,59.83
2019-01-23T09:24:40.341Z,63.60
2019-01-23T09:27:10.085Z,73.90
2019-01-23T09:29:40.135Z,64.40
2019-01-23T09:35:53.066Z,56.63
2019-01-23T09:38:57.080Z,51.43
2019-01-23T09:42:13.467Z,60.63
2019-01-23T09:45:29.728Z,54.40
2019-01-23T09:48:06.555Z,51.80
2019-01-23T09:51:18.995Z,68.53
2019-01-23T09:53:59.530Z,54.17
2019-01-23T09:56:29.281Z,59.77
2019-01-23T09:59:02.614Z,85.67
2019-01-23T10:01:30.478Z,50.87
2019-01-23T10:04:00.374Z,51.63
2019-01-23T10:06:30.078Z,59.30
2019-01-23T10:08:59.909Z,59.30
2019-01-23T10:11:30.203Z,47.33
2019-01-23T10:14:00.068Z,51.00
2019-01-23T10:16:30.218Z,49.67
2019-01-23T10:18:59.987Z,54.00
2019-01-23T10:21:30.085Z,53.23
2019-01-23T10:23:59.799Z,50.80
2019-01-23T10:26:29.575Z,67.13
2019-01-23T10:28:59.682Z,51.13
2019-01-23T10:31:29.394Z,52.40
2019-01-23T10:33:59.112Z,54.50
2019-01-23T10:36:29.152Z,51.43
2019-01-23T10:38:58.890Z,51.00
2019-01-23T10:41:28.792Z,54.57
2019-01-23T10:43:59.111Z,55.17
2019-01-23T10:46:28.821Z,59.57
2019-01-23T10:48:58.551Z,51.90
2019-01-23T10:51:28.390Z,55.00
2019-01-23T10:53:58.285Z,51.43
2019-01-23T10:56:28.076Z,49.57
2019-01-23T10:58:57.843Z,51.23
2019-01-23T11:01:27.833Z,49.93
2019-01-23T11:03:57.602Z,47.53
2019-01-23T11:06:27.698Z,49.50
2019-01-23T11:08:57.666Z,44.23
2019-01-23T11:11:27.698Z,54.63
2019-01-23T11:13:57.814Z,48.60
2019-01-23T11:16:27.546Z,47.80
2019-01-23T11:18:57.390Z,45.60
2019-01-23T11:21:27.404Z,53.70
2019-01-23T11:23:57.547Z,48.97
2019-01-23T11:26:27.662Z,48.17
2019-01-23T11:28:57.747Z,50.13
2019-01-23T11:31:27.539Z,45.93
2019-01-23T11:33:57.316Z,45.90
2019-01-23T11:36:27.165Z,45.17
2019-01-23T11:38:57.282Z,49.33
2019-01-23T11:41:27.186Z,46.00
2019-01-23T11:43:56.961Z,44.63
2019-01-23T11:46:26.845Z,50.10
2019-01-23T11:48:56.702Z,43.13
2019-01-23T11:51:26.585Z,41.90
2019-01-23T11:53:56.339Z,46.57
2019-01-23T11:56:26.414Z,45.17
2019-01-23T11:58:56.593Z,47.83
2019-01-23T12:01:27.642Z,43.70
2019-01-23T12:03:57.807Z,45.30
2019-01-23T12:06:27.610Z,43.07
2019-01-23T12:08:57.482Z,42.03
2019-01-23T12:11:27.218Z,43.73
2019-01-23T12:13:57.322Z,47.07
2019-01-23T12:16:27.194Z,42.13
2019-01-23T12:18:57.042Z,40.53
2019-01-23T12:21:27.191Z,43.20
2019-01-23T12:23:58.335Z,41.40
2019-01-23T12:26:28.409Z,40.13
2019-01-23T12:28:58.146Z,45.97
2019-01-23T12:31:34.703Z,48.50
2019-01-23T12:33:59.434Z,41.60
2019-01-23T12:36:29.254Z,46.80
2019-01-23T12:38:58.973Z,42.40
2019-01-23T12:41:28.970Z,45.93
2019-01-23T12:43:58.758Z,48.10
2019-01-23T12:46:28.588Z,47.63
2019-01-23T12:48:58.294Z,43.60
2019-01-23T12:51:28.183Z,46.37
2019-01-23T12:53:57.888Z,45.90
2019-01-23T12:56:27.745Z,47.87
2019-01-23T12:58:57.524Z,62.87
2019-01-23T13:01:27.442Z,65.43
2019-01-23T13:03:57.135Z,47.70
2019-01-23T13:06:26.897Z,51.67
2019-01-23T13:08:56.643Z,48.37
2019-01-23T13:11:26.470Z,47.03
2019-01-23T13:13:56.301Z,44.40
2019-01-23T13:16:26.259Z,45.37
2019-01-23T13:18:56.646Z,44.13
2019-01-23T13:21:27.597Z,44.53
2019-01-23T13:24:00.454Z,46.67
2019-01-23T13:26:31.015Z,47.33
2019-01-23T13:29:01.048Z,48.03
2019-01-23T13:31:33.139Z,43.27
2019-01-23T13:34:02.887Z,45.40
2019-01-23T13:36:32.814Z,47.40
2019-01-23T13:39:04.019Z,43.10
2019-01-23T13:41:33.886Z,46.50
2019-01-23T13:44:03.742Z,46.03
2019-01-23T13:46:33.538Z,48.07
2019-01-23T13:49:03.561Z,56.50
2019-01-23T13:51:33.386Z,51.10
2019-01-23T13:54:03.346Z,50.17
2019-01-23T13:56:33.034Z,46.73
2019-01-23T13:59:02.978Z,48.67
2019-01-23T14:01:32.714Z,48.10
2019-01-23T14:04:02.835Z,52.33
2019-01-23T14:06:32.678Z,51.07
2019-01-23T14:09:02.655Z,50.77
2019-01-23T14:11:32.448Z,50.67
2019-01-23T14:14:02.410Z,52.13
2019-01-23T14:16:32.182Z,49.77
2019-01-23T14:19:01.970Z,47.83
2019-01-23T14:21:31.753Z,51.50
2019-01-23T14:24:01.526Z,64.10
2019-01-23T14:26:31.576Z,51.73
2019-01-23T14:29:01.519Z,49.93
2019-01-23T14:31:31.198Z,53.73
2019-01-23T14:34:01.174Z,55.27
2019-01-23T14:36:30.852Z,51.70
2019-01-23T14:39:00.811Z,48.80
2019-01-23T14:41:30.570Z,52.27
2019-01-23T14:44:00.619Z,49.93
2019-01-23T14:46:31.234Z,53.50
2019-01-23T14:49:00.950Z,49.23
2019-01-23T14:51:30.887Z,49.80
2019-01-23T14:54:01.015Z,52.07
2019-01-23T14:56:31.024Z,53.03
2019-01-23T14:59:00.730Z,52.27
2019-01-23T15:01:30.590Z,54.43
2019-01-23T15:04:00.617Z,56.33
2019-01-23T15:06:30.442Z,54.90
2019-01-23T15:09:00.194Z,51.97
2019-01-23T15:11:30.150Z,55.70
2019-01-23T15:13:59.924Z,53.80
2019-01-23T15:16:29.806Z,48.80
2019-01-23T15:18:59.663Z,75.77
2019-01-23T15:21:29.544Z,55.77
2019-01-23T15:23:59.334Z,59.40
2019-01-23T15:26:29.608Z,58.40
2019-01-23T15:28:59.318Z,60.50
2019-01-23T15:31:29.327Z,54.30
2019-01-23T15:33:59.063Z,59.60
2019-01-23T15:36:28.822Z,52.23
2019-01-23T15:38:58.614Z,51.57
2019-01-23T15:41:28.462Z,53.90
2019-01-23T15:43:58.240Z,58.27
2019-01-23T15:46:28.061Z,58.47
2019-01-23T15:48:58.182Z,58.40
2019-01-23T15:51:27.907Z,60.80
2019-01-23T15:53:57.979Z,54.30
2019-01-23T15:56:27.822Z,56.47
2019-01-23T15:58:57.535Z,60.03
2019-01-23T16:01:27.382Z,61.30
2019-01-23T16:03:57.205Z,60.30
2019-01-23T16:06:26.973Z,67.13
2019-01-23T16:08:56.678Z,71.67
2019-01-23T16:11:26.443Z,67.97
2019-01-23T16:13:56.695Z,67.30
2019-01-23T16:16:26.495Z,68.20
2019-01-23T16:18:56.367Z,66.20
2019-01-23T16:21:26.233Z,63.17
2019-01-23T16:23:56.314Z,67.37
2019-01-23T16:26:26.174Z,65.20
2019-01-23T16:28:56.153Z,65.30
2019-01-23T16:31:25.882Z,67.33
2019-01-23T16:33:56.113Z,66.70
2019-01-23T16:36:25.926Z,69.37
2019-01-23T16:38:55.709Z,62.50
2019-01-23T16:41:25.502Z,72.43
2019-01-23T16:43:55.375Z,71.70
2019-01-23T16:46:25.233Z,69.30
2019-01-23T16:48:59.154Z,70.53
2019-01-23T16:51:29.323Z,72.43
2019-01-23T16:53:59.014Z,62.97
2019-01-23T16:56:28.914Z,67.80
2019-01-23T16:58:58.917Z,62.20
2019-01-23T17:01:28.989Z,69.73
2019-01-23T17:03:58.719Z,60.50
2019-01-23T17:06:28.695Z,62.13
2019-01-23T17:09:01.602Z,64.27
2019-01-23T17:11:31.647Z,70.80
2019-01-23T17:14:01.433Z,63.20
2019-01-23T17:16:31.375Z,60.23
2019-01-23T17:19:01.198Z,56.77
2019-01-23T17:21:31.289Z,62.20
2019-01-23T17:24:01.189Z,66.47
2019-01-23T17:26:30.968Z,66.40
2019-01-23T17:29:01.237Z,66.27
2019-01-23T17:31:30.950Z,79.43
2019-01-23T17:34:01.049Z,66.13
2019-01-23T17:36:30.941Z,67.57
2019-01-23T17:39:00.766Z,67.10
2019-01-23T17:41:30.624Z,70.20
2019-01-23T17:44:00.937Z,61.60
2019-01-23T17:46:30.666Z,74.53
2019-01-23T17:49:00.480Z,80.03
2019-01-23T17:51:30.382Z,243.50
2019-01-23T17:54:00.507Z,117.17
2019-01-23T17:56:30.306Z,171.73
2019-01-23T17:59:00.574Z,82.40
2019-01-23T18:01:30.590Z,67.13
2019-01-23T18:04:00.448Z,61.17
2019-01-23T18:06:30.379Z,69.17
2019-01-23T18:09:00.090Z,66.80
2019-01-23T18:11:30.205Z,62.67
2019-01-23T18:13:59.999Z,61.07
2019-01-23T18:16:29.727Z,70.30
2019-01-23T18:18:59.822Z,65.20
2019-01-23T18:21:29.786Z,63.17
2019-01-23T18:23:59.511Z,66.60
2019-01-23T18:26:29.266Z,65.10
2019-01-23T18:28:59.258Z,63.17
2019-01-23T18:31:42.554Z,74.43
2019-01-23T18:34:48.750Z,80.30
2019-01-23T18:37:38.218Z,76.53
2019-01-23T18:40:43.490Z,65.57
2019-01-23T18:43:51.439Z,65.27
2019-01-23T18:46:50.473Z,87.73
2019-01-23T18:49:27.482Z,83.23
2019-01-23T18:52:11.579Z,81.17
2019-01-23T18:54:41.479Z,81.67
2019-01-23T18:57:14.518Z,74.87
2019-01-23T18:59:44.443Z,74.87
2019-01-23T19:02:15.218Z,69.83
2019-01-23T19:04:45.393Z,68.87
2019-01-23T19:07:15.448Z,68.03
2019-01-23T19:09:45.225Z,74.10
2019-01-23T19:12:15.083Z,73.07
2019-01-23T19:14:45.115Z,69.73
2019-01-23T19:17:15.204Z,73.47
2019-01-23T19:19:45.186Z,71.43
2019-01-23T19:22:14.937Z,66.83
2019-01-23T19:24:44.854Z,75.87
2019-01-23T19:27:14.697Z,72.17
2019-01-23T19:29:44.781Z,78.83
2019-01-23T19:34:44.817Z,72.60
2019-01-23T19:37:14.690Z,78.33
2019-01-23T19:39:44.898Z,77.50
2019-01-23T19:42:14.706Z,74.73
2019-01-23T19:44:44.750Z,77.73
2019-01-23T19:47:15.024Z,79.13
2019-01-23T19:49:44.915Z,77.50
2019-01-23T19:52:14.713Z,80.93
2019-01-23T19:54:44.618Z,83.33
2019-01-23T19:57:14.382Z,82.77
2019-01-23T19:59:44.491Z,79.27
2019-01-23T20:02:14.192Z,86.23
2019-01-23T20:04:44.320Z,77.60
2019-01-23T20:07:14.166Z,89.33
2019-01-23T20:09:44.014Z,86.07
2019-01-23T20:12:15.741Z,94.13
2019-01-23T20:14:45.366Z,91.47
2019-01-23T20:17:15.213Z,92.97
2019-01-23T20:19:44.917Z,94.63
2019-01-23T20:22:14.705Z,98.43
2019-01-23T20:24:44.513Z,96.53
2019-01-23T20:27:14.282Z,92.47
2019-01-23T20:29:44.402Z,99.33
2019-01-23T20:32:14.333Z,95.77
2019-01-23T20:34:44.063Z,90.60
2019-01-23T20:37:13.767Z,93.00
2019-01-23T20:39:43.853Z,95.63
2019-01-23T20:42:13.605Z,88.07
2019-01-23T20:44:43.350Z,102.23
2019-01-23T20:47:13.421Z,93.03
2019-01-23T20:49:43.659Z,96.97
2019-01-23T20:52:13.766Z,106.13
2019-01-23T20:54:43.501Z,106.00
2019-01-23T20:57:13.470Z,104.33
2019-01-23T20:59:43.903Z,106.30
2019-01-23T21:02:13.882Z,101.77
2019-01-23T21:04:45.308Z,105.63
2019-01-23T21:07:15.664Z,99.20
2019-01-23T21:09:45.570Z,105.90
2019-01-23T21:12:18.782Z,106.97
2019-01-23T21:14:46.958Z,102.20
2019-01-23T21:17:17.026Z,103.13
2019-01-23T21:19:46.806Z,100.77
2019-01-23T21:22:16.819Z,105.00
2019-01-23T21:24:47.245Z,99.70
2019-01-23T21:27:17.281Z,110.23
2019-01-23T21:29:47.343Z,104.20
2019-01-23T21:32:17.554Z,97.70
2019-01-23T21:34:47.609Z,112.40
2019-01-23T21:37:17.957Z,101.97
2019-01-23T21:39:48.148Z,100.07
2019-01-23T21:42:18.237Z,100.00
2019-01-23T21:44:49.254Z,97.27
2019-01-23T21:47:19.210Z,105.10
2019-01-23T21:49:49.608Z,105.30
2019-01-23T21:52:20.028Z,119.03
2019-01-23T21:54:50.224Z,122.90
2019-01-23T21:57:21.120Z,105.60
2019-01-23T21:59:51.088Z,111.10
2019-01-23T22:02:21.377Z,108.57
2019-01-23T22:04:51.778Z,113.30
2019-01-23T22:07:21.790Z,108.27
2019-01-23T22:09:51.894Z,101.83
2019-01-23T22:12:22.471Z,109.07
2019-01-23T22:14:54.243Z,97.60
2019-01-23T22:17:24.420Z,102.27
2019-01-23T22:19:54.562Z,104.30
2019-01-23T22:22:24.753Z,94.47
2019-01-23T22:24:54.790Z,110.53
2019-01-23T22:27:25.204Z,116.87
2019-01-23T22:29:55.345Z,108.33
2019-01-23T22:32:25.187Z,100.13
2019-01-23T22:34:55.025Z,100.27
2019-01-23T22:37:25.082Z,103.63
2019-01-23T22:39:54.987Z,107.73
2019-01-23T22:42:25.116Z,102.57
2019-01-23T22:48:24.644Z,104.90
2019-01-23T22:50:56.894Z,98.80
2019-01-23T22:53:26.849Z,99.87
2019-01-23T22:55:57.169Z,104.17
2019-01-23T22:58:27.450Z,103.40
2019-01-23T23:01:05.191Z,96.30
2019-01-23T23:03:35.512Z,98.33
2019-01-23T23:06:06.241Z,97.50
2019-01-23T23:08:36.191Z,96.83
2019-01-23T23:11:07.388Z,95.10
2019-01-23T23:13:37.813Z,85.47
2019-01-23T23:16:08.317Z,82.70
2019-01-23T23:18:38.385Z,92.40
2019-01-23T23:21:08.249Z,96.63
2019-01-23T23:23:38.121Z,91.47
2019-01-23T23:26:08.004Z,93.27
2019-01-23T23:28:38.093Z,90.07
2019-01-23T23:31:07.990Z,91.07
2019-01-23T23:33:38.033Z,92.60
2019-01-23T23:36:08.978Z,93.10
2019-01-23T23:38:38.960Z,86.37
2019-01-23T23:41:09.527Z,89.27
2019-01-23T23:43:40.677Z,82.83
2019-01-23T23:46:10.920Z,87.33
2019-01-23T23:48:43.794Z,88.73
2019-01-23T23:51:13.898Z,85.97
2019-01-23T23:53:44.208Z,87.47
2019-01-23T23:56:16.581Z,88.47
2019-01-23T23:58:49.523Z,90.43
